sensor_id;sensor_type;location;lat;lon;timestamp;pressure;altitude;pressure_sealevel;temperature;humidity
8075;BME280;4080;42.676;23.372;2023-02-02T00:01:36;95153.00;;;5.69;94.42
8075;BME280;4080;42.676;23.372;2023-02-02T00:04:03;95117.78;;;5.48;93.93
8075;BME280;4080;42.676;23.372;2023-02-02T00:06:31;95120.63;;;5.47;93.30
8075;BME280;4080;42.676;23.372;2023-02-02T00:08:59;95160.59;;;5.71;93.40
8075;BME280;4080;42.676;23.372;2023-02-02T00:11:28;95154.59;;;5.70;93.36
8075;BME280;4080;42.676;23.372;2023-02-02T00:13:54;95139.13;;;5.69;93.05
8075;BME280;4080;42.676;23.372;2023-02-02T00:16:39;95134.72;;;5.57;93.17
8075;BME280;4080;42.676;23.372;2023-02-02T00:19:07;95141.31;;;5.60;92.59
8075;BME280;4080;42.676;23.372;2023-02-02T00:21:35;95157.66;;;5.67;92.93
8075;BME280;4080;42.676;23.372;2023-02-02T00:24:02;95158.69;;;5.66;92.82
8075;BME280;4080;42.676;23.372;2023-02-02T00:26:31;95164.16;;;5.65;92.86
8075;BME280;4080;42.676;23.372;2023-02-02T00:28:57;95154.97;;;5.62;92.92
8075;BME280;4080;42.676;23.372;2023-02-02T00:31:24;95162.25;;;5.60;93.44
8075;BME280;4080;42.676;23.372;2023-02-02T00:33:51;95149.63;;;5.57;93.28
8075;BME280;4080;42.676;23.372;2023-02-02T00:36:19;95148.16;;;5.49;93.68
8075;BME280;4080;42.676;23.372;2023-02-02T00:38:46;95163.75;;;5.56;93.80
8075;BME280;4080;42.676;23.372;2023-02-02T00:41:13;95159.09;;;5.46;93.58
8075;BME280;4080;42.676;23.372;2023-02-02T00:43:41;95170.13;;;5.48;94.07
8075;BME280;4080;42.676;23.372;2023-02-02T00:46:09;95180.94;;;5.52;94.13
8075;BME280;4080;42.676;23.372;2023-02-02T00:48:38;95167.72;;;5.47;94.36
8075;BME280;4080;42.676;23.372;2023-02-02T00:51:05;95173.66;;;5.54;94.19
8075;BME280;4080;42.676;23.372;2023-02-02T00:53:31;95168.84;;;5.51;94.76
8075;BME280;4080;42.676;23.372;2023-02-02T00:55:58;95173.75;;;5.47;95.08
8075;BME280;4080;42.676;23.372;2023-02-02T00:58:24;95173.44;;;5.44;95.23
8075;BME280;4080;42.676;23.372;2023-02-02T01:00:52;95162.31;;;5.37;95.64
8075;BME280;4080;42.676;23.372;2023-02-02T01:03:19;95171.19;;;5.36;95.79
8075;BME280;4080;42.676;23.372;2023-02-02T01:05:46;95166.06;;;5.29;96.00
8075;BME280;4080;42.676;23.372;2023-02-02T01:08:14;95156.06;;;5.26;96.04
8075;BME280;4080;42.676;23.372;2023-02-02T01:10:41;95072.59;;;4.73;96.53
8075;BME280;4080;42.676;23.372;2023-02-02T01:13:07;95154.25;;;5.26;96.41
8075;BME280;4080;42.676;23.372;2023-02-02T01:15:35;95153.56;;;5.19;97.08
8075;BME280;4080;42.676;23.372;2023-02-02T01:18:04;95149.03;;;5.15;97.52
8075;BME280;4080;42.676;23.372;2023-02-02T01:20:30;95149.94;;;5.09;97.41
8075;BME280;4080;42.676;23.372;2023-02-02T01:22:57;95088.63;;;4.64;98.42
8075;BME280;4080;42.676;23.372;2023-02-02T01:25:24;95141.47;;;4.90;99.30
8075;BME280;4080;42.676;23.372;2023-02-02T01:27:51;95134.06;;;4.75;100.00
8075;BME280;4080;42.676;23.372;2023-02-02T01:30:18;95137.81;;;4.67;100.00
8075;BME280;4080;42.676;23.372;2023-02-02T01:32:45;95120.69;;;4.60;100.00
8075;BME280;4080;42.676;23.372;2023-02-02T01:35:13;95126.78;;;4.54;100.00
8075;BME280;4080;42.676;23.372;2023-02-02T01:37:39;95124.97;;;4.43;100.00
8075;BME280;4080;42.676;23.372;2023-02-02T01:40:07;95120.09;;;4.34;100.00
8075;BME280;4080;42.676;23.372;2023-02-02T01:42:34;95131.63;;;4.27;100.00
8075;BME280;4080;42.676;23.372;2023-02-02T01:45:20;95114.59;;;4.13;100.00
8075;BME280;4080;42.676;23.372;2023-02-02T01:47:51;95119.38;;;4.16;100.00
8075;BME280;4080;42.676;23.372;2023-02-02T01:50:23;95122.88;;;4.10;100.00
8075;BME280;4080;42.676;23.372;2023-02-02T01:52:53;95113.34;;;4.03;100.00
8075;BME280;4080;42.676;23.372;2023-02-02T01:55:22;95104.38;;;3.99;100.00
8075;BME280;4080;42.676;23.372;2023-02-02T01:57:52;95107.19;;;3.98;100.00
8075;BME280;4080;42.676;23.372;2023-02-02T02:00:21;95107.06;;;3.93;100.00
8075;BME280;4080;42.676;23.372;2023-02-02T02:02:51;95099.91;;;3.88;100.00
8075;BME280;4080;42.676;23.372;2023-02-02T02:05:23;95083.78;;;3.80;100.00
8075;BME280;4080;42.676;23.372;2023-02-02T02:07:53;95086.25;;;3.74;100.00
8075;BME280;4080;42.676;23.372;2023-02-02T02:10:21;95070.25;;;3.71;100.00
8075;BME280;4080;42.676;23.372;2023-02-02T02:12:48;95097.41;;;3.82;100.00
8075;BME280;4080;42.676;23.372;2023-02-02T02:15:15;95097.41;;;3.82;100.00
8075;BME280;4080;42.676;23.372;2023-02-02T02:18:05;95090.81;;;3.79;100.00
8075;BME280;4080;42.676;23.372;2023-02-02T02:21:08;95109.78;;;3.86;100.00
8075;BME280;4080;42.676;23.372;2023-02-02T02:27:38;95095.91;;;3.74;100.00
8075;BME280;4080;42.676;23.372;2023-02-02T02:30:49;95109.53;;;3.76;100.00
8075;BME280;4080;42.676;23.372;2023-02-02T02:33:24;95110.31;;;3.77;100.00
8075;BME280;4080;42.676;23.372;2023-02-02T02:35:58;95102.72;;;3.75;100.00
8075;BME280;4080;42.676;23.372;2023-02-02T02:38:33;95101.13;;;3.74;100.00
8075;BME280;4080;42.676;23.372;2023-02-02T02:41:05;95008.94;;;3.08;100.00
8075;BME280;4080;42.676;23.372;2023-02-02T02:43:39;95092.72;;;3.72;100.00
8075;BME280;4080;42.676;23.372;2023-02-02T02:46:08;95090.41;;;3.64;100.00
8075;BME280;4080;42.676;23.372;2023-02-02T02:48:36;95107.59;;;3.71;100.00
8075;BME280;4080;42.676;23.372;2023-02-02T02:51:07;95103.59;;;3.69;100.00
8075;BME280;4080;42.676;23.372;2023-02-02T02:53:35;95059.84;;;3.41;100.00
8075;BME280;4080;42.676;23.372;2023-02-02T02:56:09;95063.81;;;3.43;100.00
8075;BME280;4080;42.676;23.372;2023-02-02T02:58:45;95085.28;;;3.57;100.00
8075;BME280;4080;42.676;23.372;2023-02-02T03:01:18;95060.06;;;3.39;100.00
8075;BME280;4080;42.676;23.372;2023-02-02T03:04:00;95092.00;;;3.65;100.00
8075;BME280;4080;42.676;23.372;2023-02-02T03:06:35;95093.16;;;3.69;100.00
8075;BME280;4080;42.676;23.372;2023-02-02T03:09:08;95065.41;;;3.45;100.00
8075;BME280;4080;42.676;23.372;2023-02-02T03:11:36;95093.16;;;3.69;100.00
8075;BME280;4080;42.676;23.372;2023-02-02T03:14:03;95102.81;;;3.68;100.00
8075;BME280;4080;42.676;23.372;2023-02-02T03:16:34;95096.00;;;3.67;100.00
8075;BME280;4080;42.676;23.372;2023-02-02T03:19:02;95043.91;;;3.31;100.00
8075;BME280;4080;42.676;23.372;2023-02-02T03:21:29;95073.03;;;3.58;100.00
8075;BME280;4080;42.676;23.372;2023-02-02T03:23:56;95070.44;;;3.58;100.00
8075;BME280;4080;42.676;23.372;2023-02-02T03:26:23;95085.47;;;3.74;100.00
8075;BME280;4080;42.676;23.372;2023-02-02T03:28:51;95082.28;;;3.72;100.00
8075;BME280;4080;42.676;23.372;2023-02-02T03:31:19;95095.47;;;3.77;100.00
8075;BME280;4080;42.676;23.372;2023-02-02T03:33:46;95091.47;;;3.74;100.00
8075;BME280;4080;42.676;23.372;2023-02-02T03:36:14;95103.50;;;3.76;100.00
8075;BME280;4080;42.676;23.372;2023-02-02T03:38:40;95103.72;;;3.74;100.00
8075;BME280;4080;42.676;23.372;2023-02-02T03:41:07;95097.94;;;3.72;100.00
8075;BME280;4080;42.676;23.372;2023-02-02T03:43:34;95105.63;;;3.67;100.00
8075;BME280;4080;42.676;23.372;2023-02-02T03:46:02;95104.91;;;3.60;100.00
8075;BME280;4080;42.676;23.372;2023-02-02T03:48:30;95106.38;;;3.56;100.00
8075;BME280;4080;42.676;23.372;2023-02-02T03:50:57;95102.72;;;3.45;100.00
8075;BME280;4080;42.676;23.372;2023-02-02T03:53:25;95110.63;;;3.38;100.00
8075;BME280;4080;42.676;23.372;2023-02-02T03:55:51;95105.69;;;3.30;100.00
8075;BME280;4080;42.676;23.372;2023-02-02T03:58:19;95106.00;;;3.22;100.00
8075;BME280;4080;42.676;23.372;2023-02-02T04:00:46;95114.56;;;3.11;100.00
8075;BME280;4080;42.676;23.372;2023-02-02T04:03:13;95119.69;;;2.99;100.00
8075;BME280;4080;42.676;23.372;2023-02-02T04:05:40;95104.88;;;2.82;100.00
8075;BME280;4080;42.676;23.372;2023-02-02T04:08:06;95102.69;;;2.78;100.00
8075;BME280;4080;42.676;23.372;2023-02-02T04:10:34;95108.75;;;2.72;100.00
8075;BME280;4080;42.676;23.372;2023-02-02T04:13:03;95108.16;;;2.70;100.00
8075;BME280;4080;42.676;23.372;2023-02-02T04:15:29;95074.16;;;2.47;100.00
8075;BME280;4080;42.676;23.372;2023-02-02T04:17:56;95117.13;;;2.74;100.00
8075;BME280;4080;42.676;23.372;2023-02-02T04:20:23;95103.31;;;2.74;100.00
8075;BME280;4080;42.676;23.372;2023-02-02T04:22:49;95112.94;;;2.73;100.00
8075;BME280;4080;42.676;23.372;2023-02-02T04:25:16;95111.94;;;2.74;100.00
8075;BME280;4080;42.676;23.372;2023-02-02T04:27:44;95109.94;;;2.76;100.00
8075;BME280;4080;42.676;23.372;2023-02-02T04:30:11;95114.72;;;2.79;100.00
8075;BME280;4080;42.676;23.372;2023-02-02T04:32:38;95118.69;;;2.82;100.00
8075;BME280;4080;42.676;23.372;2023-02-02T04:35:05;95108.13;;;2.77;100.00
8075;BME280;4080;42.676;23.372;2023-02-02T04:37:32;95097.50;;;2.78;100.00
8075;BME280;4080;42.676;23.372;2023-02-02T04:39:59;95103.19;;;2.87;100.00
8075;BME280;4080;42.676;23.372;2023-02-02T04:42:25;95110.34;;;2.92;100.00
8075;BME280;4080;42.676;23.372;2023-02-02T04:44:53;95111.94;;;2.93;100.00
8075;BME280;4080;42.676;23.372;2023-02-02T04:47:20;95126.56;;;2.94;100.00
8075;BME280;4080;42.676;23.372;2023-02-02T04:49:47;95131.78;;;2.94;100.00
8075;BME280;4080;42.676;23.372;2023-02-02T04:52:14;95116.44;;;2.86;100.00
8075;BME280;4080;42.676;23.372;2023-02-02T04:54:41;95070.84;;;2.58;100.00
8075;BME280;4080;42.676;23.372;2023-02-02T04:57:08;95105.44;;;2.84;100.00
8075;BME280;4080;42.676;23.372;2023-02-02T04:59:34;95126.56;;;2.94;100.00
8075;BME280;4080;42.676;23.372;2023-02-02T05:02:02;95122.72;;;2.96;100.00
8075;BME280;4080;42.676;23.372;2023-02-02T05:04:29;95134.59;;;2.92;100.00
8075;BME280;4080;42.676;23.372;2023-02-02T05:06:56;95127.22;;;2.89;100.00
8075;BME280;4080;42.676;23.372;2023-02-02T05:09:22;95124.25;;;2.86;100.00
8075;BME280;4080;42.676;23.372;2023-02-02T05:11:49;95133.88;;;2.85;100.00
8075;BME280;4080;42.676;23.372;2023-02-02T05:14:16;95124.34;;;2.79;100.00
8075;BME280;4080;42.676;23.372;2023-02-02T05:16:44;95128.31;;;2.82;100.00
8075;BME280;4080;42.676;23.372;2023-02-02T05:19:12;95119.34;;;2.77;100.00
8075;BME280;4080;42.676;23.372;2023-02-02T05:21:41;95116.56;;;2.72;100.00
8075;BME280;4080;42.676;23.372;2023-02-02T05:24:09;95116.78;;;2.71;100.00
8075;BME280;4080;42.676;23.372;2023-02-02T05:26:36;95069.28;;;2.32;100.00
8075;BME280;4080;42.676;23.372;2023-02-02T05:29:03;95123.22;;;2.68;100.00
8075;BME280;4080;42.676;23.372;2023-02-02T05:31:31;95072.69;;;2.33;100.00
8075;BME280;4080;42.676;23.372;2023-02-02T05:33:58;95128.13;;;2.58;100.00
8075;BME280;4080;42.676;23.372;2023-02-02T05:36:26;95120.44;;;2.45;100.00
8075;BME280;4080;42.676;23.372;2023-02-02T05:38:53;95141.44;;;2.50;100.00
8075;BME280;4080;42.676;23.372;2023-02-02T05:41:19;95141.88;;;2.47;100.00
8075;BME280;4080;42.676;23.372;2023-02-02T05:43:46;95126.56;;;2.32;100.00
8075;BME280;4080;42.676;23.372;2023-02-02T05:46:13;95144.28;;;2.42;100.00
8075;BME280;4080;42.676;23.372;2023-02-02T05:48:40;95147.47;;;2.44;100.00
8075;BME280;4080;42.676;23.372;2023-02-02T05:51:11;95091.75;;;2.02;100.00
8075;BME280;4080;42.676;23.372;2023-02-02T05:53:42;95148.44;;;2.49;100.00
8075;BME280;4080;42.676;23.372;2023-02-02T05:56:10;95154.72;;;2.85;100.00
8075;BME280;4080;42.676;23.372;2023-02-02T05:58:37;95158.84;;;3.29;100.00
8075;BME280;4080;42.676;23.372;2023-02-02T06:01:04;95157.59;;;3.98;100.00
8075;BME280;4080;42.676;23.372;2023-02-02T06:03:31;95158.03;;;4.72;100.00
8075;BME280;4080;42.676;23.372;2023-02-02T06:05:57;95151.00;;;4.73;100.00
8075;BME280;4080;42.676;23.372;2023-02-02T06:08:24;95153.69;;;4.43;100.00
8075;BME280;4080;42.676;23.372;2023-02-02T06:10:52;95127.72;;;3.94;100.00
8075;BME280;4080;42.676;23.372;2023-02-02T06:13:19;95144.72;;;3.97;100.00
8075;BME280;4080;42.676;23.372;2023-02-02T06:15:46;95153.56;;;3.84;100.00
8075;BME280;4080;42.676;23.372;2023-02-02T06:18:13;95146.13;;;3.69;100.00
8075;BME280;4080;42.676;23.372;2023-02-02T06:20:40;95145.50;;;3.56;100.00
8075;BME280;4080;42.676;23.372;2023-02-02T06:23:07;95155.81;;;3.81;100.00
8075;BME280;4080;42.676;23.372;2023-02-02T06:25:34;95156.38;;;3.83;100.00
8075;BME280;4080;42.676;23.372;2023-02-02T06:28:03;95141.09;;;3.86;100.00
8075;BME280;4080;42.676;23.372;2023-02-02T06:30:30;95176.28;;;3.95;100.00
8075;BME280;4080;42.676;23.372;2023-02-02T06:32:58;95127.91;;;3.51;100.00
8075;BME280;4080;42.676;23.372;2023-02-02T06:35:25;95186.19;;;3.75;100.00
8075;BME280;4080;42.676;23.372;2023-02-02T06:37:51;95180.06;;;3.69;100.00
8075;BME280;4080;42.676;23.372;2023-02-02T06:40:18;95179.53;;;3.61;100.00
8075;BME280;4080;42.676;23.372;2023-02-02T06:42:45;95146.13;;;3.21;100.00
8075;BME280;4080;42.676;23.372;2023-02-02T06:45:13;95202.16;;;3.49;100.00
8075;BME280;4080;42.676;23.372;2023-02-02T06:47:40;95196.25;;;3.41;100.00
8075;BME280;4080;42.676;23.372;2023-02-02T06:50:08;95190.28;;;3.34;100.00
8075;BME280;4080;42.676;23.372;2023-02-02T06:52:35;95188.69;;;3.33;100.00
8075;BME280;4080;42.676;23.372;2023-02-02T06:55:01;95207.94;;;3.32;100.00
8075;BME280;4080;42.676;23.372;2023-02-02T06:57:28;95203.75;;;3.31;100.00
8075;BME280;4080;42.676;23.372;2023-02-02T06:59:55;95185.44;;;3.20;100.00
8075;BME280;4080;42.676;23.372;2023-02-02T07:02:23;95212.22;;;3.27;100.00
8075;BME280;4080;42.676;23.372;2023-02-02T07:04:50;95198.63;;;3.25;100.00
8075;BME280;4080;42.676;23.372;2023-02-02T07:07:17;95210.41;;;3.27;100.00
8075;BME280;4080;42.676;23.372;2023-02-02T07:09:44;95216.94;;;3.36;100.00
8075;BME280;4080;42.676;23.372;2023-02-02T07:12:11;95194.41;;;3.24;100.00
8075;BME280;4080;42.676;23.372;2023-02-02T07:14:37;95204.72;;;3.37;100.00
8075;BME280;4080;42.676;23.372;2023-02-02T07:17:05;95207.91;;;3.39;100.00
8075;BME280;4080;42.676;23.372;2023-02-02T07:19:33;95213.25;;;3.44;100.00
8075;BME280;4080;42.676;23.372;2023-02-02T07:22:03;95216.44;;;3.46;100.00
8075;BME280;4080;42.676;23.372;2023-02-02T07:24:30;95208.97;;;3.50;100.00
8075;BME280;4080;42.676;23.372;2023-02-02T07:26:57;95186.47;;;3.37;100.00
8075;BME280;4080;42.676;23.372;2023-02-02T07:29:24;95219.31;;;3.56;100.00
8075;BME280;4080;42.676;23.372;2023-02-02T07:31:51;95212.88;;;3.59;100.00
8075;BME280;4080;42.676;23.372;2023-02-02T07:34:17;95218.38;;;3.51;100.00
8075;BME280;4080;42.676;23.372;2023-02-02T07:36:45;95215.66;;;3.46;100.00
8075;BME280;4080;42.676;23.372;2023-02-02T07:39:12;95222.22;;;3.48;100.00
8075;BME280;4080;42.676;23.372;2023-02-02T07:41:39;95218.53;;;3.56;100.00
8075;BME280;4080;42.676;23.372;2023-02-02T07:44:11;95209.34;;;4.01;100.00
8075;BME280;4080;42.676;23.372;2023-02-02T07:46:40;95215.06;;;4.63;100.00
8075;BME280;4080;42.676;23.372;2023-02-02T07:49:06;95171.56;;;4.69;100.00
8075;BME280;4080;42.676;23.372;2023-02-02T07:51:36;95201.78;;;5.12;100.00
8075;BME280;4080;42.676;23.372;2023-02-02T07:54:05;95185.19;;;5.29;100.00
8075;BME280;4080;42.676;23.372;2023-02-02T07:56:31;95186.28;;;5.85;100.00
8075;BME280;4080;42.676;23.372;2023-02-02T07:58:58;95190.91;;;6.52;100.00
8075;BME280;4080;42.676;23.372;2023-02-02T08:01:26;95177.69;;;6.97;100.00
8075;BME280;4080;42.676;23.372;2023-02-02T08:03:54;95195.66;;;7.44;100.00
8075;BME280;4080;42.676;23.372;2023-02-02T08:06:23;95187.78;;;7.88;95.83
8075;BME280;4080;42.676;23.372;2023-02-02T08:08:51;95181.00;;;8.40;93.54
8075;BME280;4080;42.676;23.372;2023-02-02T08:11:20;95172.69;;;8.54;92.68
8075;BME280;4080;42.676;23.372;2023-02-02T08:13:48;95154.91;;;8.66;88.82
8075;BME280;4080;42.676;23.372;2023-02-02T08:16:16;95194.91;;;9.05;88.27
8075;BME280;4080;42.676;23.372;2023-02-02T08:18:43;95185.91;;;9.43;89.70
8075;BME280;4080;42.676;23.372;2023-02-02T08:21:10;95188.94;;;9.67;85.86
8075;BME280;4080;42.676;23.372;2023-02-02T08:23:38;95176.09;;;9.81;85.25
8075;BME280;4080;42.676;23.372;2023-02-02T08:26:06;95183.78;;;9.98;85.37
8075;BME280;4080;42.676;23.372;2023-02-02T08:28:35;95146.88;;;9.87;85.93
8075;BME280;4080;42.676;23.372;2023-02-02T08:31:06;95172.03;;;10.36;83.44
8075;BME280;4080;42.676;23.372;2023-02-02T08:33:33;95177.34;;;10.71;82.47
8075;BME280;4080;42.676;23.372;2023-02-02T08:36:00;95174.19;;;10.89;79.71
8075;BME280;4080;42.676;23.372;2023-02-02T08:38:27;95163.34;;;10.91;80.02
8075;BME280;4080;42.676;23.372;2023-02-02T08:40:54;95162.56;;;11.06;80.43
8075;BME280;4080;42.676;23.372;2023-02-02T08:43:21;95152.72;;;11.37;79.23
8075;BME280;4080;42.676;23.372;2023-02-02T08:45:50;95155.50;;;11.76;76.75
8075;BME280;4080;42.676;23.372;2023-02-02T08:48:17;95139.53;;;12.01;75.06
8075;BME280;4080;42.676;23.372;2023-02-02T08:50:51;95155.13;;;12.47;74.01
8075;BME280;4080;42.676;23.372;2023-02-02T08:53:18;95154.03;;;12.87;69.83
8075;BME280;4080;42.676;23.372;2023-02-02T08:55:44;95147.53;;;13.03;67.41
8075;BME280;4080;42.676;23.372;2023-02-02T08:58:11;95127.50;;;12.63;66.58
8075;BME280;4080;42.676;23.372;2023-02-02T09:00:38;95148.06;;;12.37;66.06
8075;BME280;4080;42.676;23.372;2023-02-02T09:03:06;95159.16;;;11.95;67.87
8075;BME280;4080;42.676;23.372;2023-02-02T09:05:34;95164.53;;;11.65;69.46
8075;BME280;4080;42.676;23.372;2023-02-02T09:08:03;95158.34;;;11.05;73.58
8075;BME280;4080;42.676;23.372;2023-02-02T09:10:29;95158.88;;;10.66;77.33
8075;BME280;4080;42.676;23.372;2023-02-02T09:12:56;95151.47;;;10.68;78.30
8075;BME280;4080;42.676;23.372;2023-02-02T09:15:23;95146.72;;;10.70;77.16
8075;BME280;4080;42.676;23.372;2023-02-02T09:17:51;95151.50;;;10.48;79.59
8075;BME280;4080;42.676;23.372;2023-02-02T09:20:19;95142.69;;;10.07;80.19
8075;BME280;4080;42.676;23.372;2023-02-02T09:22:46;95141.78;;;9.65;82.63
8075;BME280;4080;42.676;23.372;2023-02-02T09:25:13;95136.66;;;9.33;84.01
8075;BME280;4080;42.676;23.372;2023-02-02T09:27:40;95142.19;;;9.37;85.52
8075;BME280;4080;42.676;23.372;2023-02-02T09:30:08;95129.16;;;9.73;84.32
8075;BME280;4080;42.676;23.372;2023-02-02T09:32:34;95128.25;;;10.24;82.47
8075;BME280;4080;42.676;23.372;2023-02-02T09:35:01;95093.72;;;10.31;81.19
8075;BME280;4080;42.676;23.372;2023-02-02T09:37:32;95104.53;;;10.24;78.65
8075;BME280;4080;42.676;23.372;2023-02-02T09:39:59;95127.75;;;10.63;78.52
8075;BME280;4080;42.676;23.372;2023-02-02T09:42:42;95116.31;;;11.24;77.54
8075;BME280;4080;42.676;23.372;2023-02-02T09:45:22;95111.72;;;12.09;74.10
8075;BME280;4080;42.676;23.372;2023-02-02T09:47:53;95095.63;;;12.73;70.51
8075;BME280;4080;42.676;23.372;2023-02-02T09:50:37;95116.47;;;13.62;69.02
8075;BME280;4080;42.676;23.372;2023-02-02T09:53:12;95113.06;;;13.99;66.31
8075;BME280;4080;42.676;23.372;2023-02-02T09:55:41;95110.41;;;14.37;63.20
8075;BME280;4080;42.676;23.372;2023-02-02T09:58:12;94977.00;;;13.47;61.23
8075;BME280;4080;42.676;23.372;2023-02-02T10:00:43;95096.66;;;13.97;63.86
8075;BME280;4080;42.676;23.372;2023-02-02T10:03:15;95099.31;;;13.78;64.85
8075;BME280;4080;42.676;23.372;2023-02-02T10:05:49;95102.78;;;14.16;62.69
8075;BME280;4080;42.676;23.372;2023-02-02T10:08:23;95103.19;;;14.42;60.63
8075;BME280;4080;42.676;23.372;2023-02-02T10:10:52;95097.81;;;14.80;58.27
8075;BME280;4080;42.676;23.372;2023-02-02T10:13:24;95093.47;;;15.16;57.32
8075;BME280;4080;42.676;23.372;2023-02-02T10:15:58;95097.72;;;15.31;54.93
8075;BME280;4080;42.676;23.372;2023-02-02T10:18:34;95083.13;;;15.15;56.18
8075;BME280;4080;42.676;23.372;2023-02-02T10:21:07;95073.81;;;14.71;55.19
8075;BME280;4080;42.676;23.372;2023-02-02T10:23:39;95059.16;;;14.74;57.33
8075;BME280;4080;42.676;23.372;2023-02-02T10:26:14;95069.34;;;15.40;54.78
8075;BME280;4080;42.676;23.372;2023-02-02T10:28:53;95037.38;;;15.18;55.22
8075;BME280;4080;42.676;23.372;2023-02-02T10:31:35;95073.09;;;15.26;55.30
8075;BME280;4080;42.676;23.372;2023-02-02T10:34:12;95069.78;;;15.61;56.10
8075;BME280;4080;42.676;23.372;2023-02-02T10:36:49;95062.38;;;15.72;54.36
8075;BME280;4080;42.676;23.372;2023-02-02T10:39:28;95069.41;;;14.94;56.42
8075;BME280;4080;42.676;23.372;2023-02-02T10:42:05;95057.72;;;14.49;57.07
8075;BME280;4080;42.676;23.372;2023-02-02T10:44:44;95036.78;;;14.47;56.90
8075;BME280;4080;42.676;23.372;2023-02-02T10:47:16;95032.78;;;14.64;56.06
8075;BME280;4080;42.676;23.372;2023-02-02T10:49:54;95027.75;;;14.62;56.25
8075;BME280;4080;42.676;23.372;2023-02-02T10:52:29;95020.03;;;14.79;56.73
8075;BME280;4080;42.676;23.372;2023-02-02T10:55:00;94964.56;;;14.32;54.64
8075;BME280;4080;42.676;23.372;2023-02-02T10:57:46;94969.38;;;13.97;56.21
8075;BME280;4080;42.676;23.372;2023-02-02T11:00:19;94967.41;;;14.03;55.44
8075;BME280;4080;42.676;23.372;2023-02-02T11:02:47;94996.97;;;14.61;56.27
8075;BME280;4080;42.676;23.372;2023-02-02T11:05:18;95012.88;;;15.07;54.24
8075;BME280;4080;42.676;23.372;2023-02-02T11:08:12;94993.38;;;15.12;52.75
8075;BME280;4080;42.676;23.372;2023-02-02T11:10:40;95003.31;;;15.20;52.67
8075;BME280;4080;42.676;23.372;2023-02-02T11:13:13;94957.47;;;14.87;53.28
8075;BME280;4080;42.676;23.372;2023-02-02T11:15:41;95011.28;;;15.34;51.55
8075;BME280;4080;42.676;23.372;2023-02-02T11:18:13;94979.78;;;14.26;52.92
8075;BME280;4080;42.676;23.372;2023-02-02T11:20:41;94988.91;;;14.20;53.98
8075;BME280;4080;42.676;23.372;2023-02-02T11:23:16;94986.72;;;14.41;54.02
8075;BME280;4080;42.676;23.372;2023-02-02T11:25:45;94945.38;;;14.53;54.45
8075;BME280;4080;42.676;23.372;2023-02-02T11:28:23;94964.38;;;15.02;53.45
8075;BME280;4080;42.676;23.372;2023-02-02T11:30:55;94958.22;;;15.29;52.51
8075;BME280;4080;42.676;23.372;2023-02-02T11:33:27;94954.13;;;14.95;52.25
8075;BME280;4080;42.676;23.372;2023-02-02T11:35:55;94946.47;;;14.80;52.83
8075;BME280;4080;42.676;23.372;2023-02-02T11:38:23;94964.28;;;14.79;53.74
8075;BME280;4080;42.676;23.372;2023-02-02T11:40:56;94948.81;;;14.81;53.15
8075;BME280;4080;42.676;23.372;2023-02-02T11:43:28;94942.25;;;14.79;51.89
8075;BME280;4080;42.676;23.372;2023-02-02T11:45:58;94945.16;;;14.64;53.40
8075;BME280;4080;42.676;23.372;2023-02-02T11:48:28;94942.16;;;14.70;53.07
8075;BME280;4080;42.676;23.372;2023-02-02T11:50:57;94945.78;;;14.88;54.20
8075;BME280;4080;42.676;23.372;2023-02-02T11:53:26;94930.03;;;15.05;52.36
8075;BME280;4080;42.676;23.372;2023-02-02T11:55:56;94910.97;;;14.62;52.96
8075;BME280;4080;42.676;23.372;2023-02-02T11:58:26;94927.78;;;14.57;52.94
8075;BME280;4080;42.676;23.372;2023-02-02T12:00:56;94908.75;;;14.37;53.64
8075;BME280;4080;42.676;23.372;2023-02-02T12:03:29;94908.44;;;14.24;54.15
8075;BME280;4080;42.676;23.372;2023-02-02T12:05:56;94896.06;;;14.20;54.94
8075;BME280;4080;42.676;23.372;2023-02-02T12:08:23;94881.47;;;14.04;54.39
8075;BME280;4080;42.676;23.372;2023-02-02T12:10:58;94892.75;;;13.95;54.85
8075;BME280;4080;42.676;23.372;2023-02-02T12:13:45;94914.56;;;13.92;55.53
8075;BME280;4080;42.676;23.372;2023-02-02T12:16:27;94915.53;;;13.83;55.76
8075;BME280;4080;42.676;23.372;2023-02-02T12:19:08;94912.84;;;13.50;56.69
8075;BME280;4080;42.676;23.372;2023-02-02T12:21:46;94905.97;;;13.30;58.04
8075;BME280;4080;42.676;23.372;2023-02-02T12:24:28;94907.84;;;13.06;58.70
8075;BME280;4080;42.676;23.372;2023-02-02T12:27:05;94913.66;;;12.65;59.83
8075;BME280;4080;42.676;23.372;2023-02-02T12:29:44;94905.59;;;12.28;61.26
8075;BME280;4080;42.676;23.372;2023-02-02T12:32:27;94916.88;;;12.09;61.70
8075;BME280;4080;42.676;23.372;2023-02-02T12:35:14;94898.88;;;11.77;62.70
8075;BME280;4080;42.676;23.372;2023-02-02T12:37:53;94890.41;;;11.46;63.08
8075;BME280;4080;42.676;23.372;2023-02-02T12:40:48;94913.16;;;11.42;64.05
8075;BME280;4080;42.676;23.372;2023-02-02T12:43:31;94905.81;;;11.34;64.14
8075;BME280;4080;42.676;23.372;2023-02-02T12:46:11;94919.06;;;11.24;63.11
8075;BME280;4080;42.676;23.372;2023-02-02T12:48:50;94906.50;;;11.11;62.91
8075;BME280;4080;42.676;23.372;2023-02-02T12:51:31;94907.84;;;10.98;62.47
8075;BME280;4080;42.676;23.372;2023-02-02T12:54:17;94916.41;;;10.80;62.92
8075;BME280;4080;42.676;23.372;2023-02-02T12:56:50;94878.31;;;10.42;62.57
8075;BME280;4080;42.676;23.372;2023-02-02T12:59:33;94915.16;;;10.57;63.81
8075;BME280;4080;42.676;23.372;2023-02-02T13:02:09;94847.78;;;10.05;63.98
8075;BME280;4080;42.676;23.372;2023-02-02T13:04:52;94902.59;;;10.29;64.33
8075;BME280;4080;42.676;23.372;2023-02-02T13:07:33;94907.84;;;10.34;64.64
8075;BME280;4080;42.676;23.372;2023-02-02T13:10:15;94906.81;;;10.30;64.85
8075;BME280;4080;42.676;23.372;2023-02-02T13:12:48;94907.88;;;10.23;65.32
8075;BME280;4080;42.676;23.372;2023-02-02T13:15:20;94907.34;;;10.26;65.16
8075;BME280;4080;42.676;23.372;2023-02-02T13:17:50;94898.38;;;10.27;65.77
8075;BME280;4080;42.676;23.372;2023-02-02T13:20:35;94900.75;;;10.29;65.45
8075;BME280;4080;42.676;23.372;2023-02-02T13:23:07;94916.81;;;10.38;65.33
8075;BME280;4080;42.676;23.372;2023-02-02T13:25:40;94916.28;;;10.41;64.53
8075;BME280;4080;42.676;23.372;2023-02-02T13:28:16;94901.25;;;10.36;64.69
8075;BME280;4080;42.676;23.372;2023-02-02T13:30:49;94896.75;;;10.37;64.83
8075;BME280;4080;42.676;23.372;2023-02-02T13:33:21;94890.69;;;10.36;65.25